sensor_id;sensor_type;location;lat;lon;timestamp;pressure;altitude;pressure_sealevel;temperature;humidity
48790;BME280;41718;51.980;5.734;2022-10-04T00:09:18;102150.78;;;9.63;100.00
48790;BME280;41718;51.980;5.734;2022-10-04T00:14:27;102149.03;;;9.62;100.00
48790;BME280;41718;51.980;5.734;2022-10-04T00:19:38;102141.31;;;9.63;100.00
48790;BME280;41718;51.980;5.734;2022-10-04T00:25:15;102130.88;;;9.60;100.00
48790;BME280;41718;51.980;5.734;2022-10-04T00:30:14;102131.00;;;9.63;100.00
48790;BME280;41718;51.980;5.734;2022-10-04T00:35:49;102122.75;;;9.51;100.00
48790;BME280;41718;51.980;5.734;2022-10-04T00:46:32;102113.78;;;9.64;100.00
48790;BME280;41718;51.980;5.734;2022-10-04T00:51:10;102103.41;;;9.62;100.00
48790;BME280;41718;51.980;5.734;2022-10-04T00:56:15;102097.34;;;9.62;100.00
48790;BME280;41718;51.980;5.734;2022-10-04T01:01:20;102089.78;;;9.66;100.00
48790;BME280;41718;51.980;5.734;2022-10-04T01:06:24;102079.91;;;9.78;100.00
48790;BME280;41718;51.980;5.734;2022-10-04T01:11:27;102071.50;;;10.06;100.00
48790;BME280;41718;51.980;5.734;2022-10-04T01:16:33;102058.16;;;9.96;100.00
48790;BME280;41718;51.980;5.734;2022-10-04T01:21:36;102059.09;;;9.98;100.00
48790;BME280;41718;51.980;5.734;2022-10-04T01:26:40;102063.50;;;10.00;100.00
48790;BME280;41718;51.980;5.734;2022-10-04T01:31:43;102065.16;;;9.98;100.00
48790;BME280;41718;51.980;5.734;2022-10-04T01:36:45;102046.59;;;9.86;100.00
48790;BME280;41718;51.980;5.734;2022-10-04T01:46:50;102035.97;;;9.78;100.00
48790;BME280;41718;51.980;5.734;2022-10-04T01:51:55;102030.22;;;9.63;100.00
48790;BME280;41718;51.980;5.734;2022-10-04T01:56:59;102016.47;;;9.64;100.00
48790;BME280;41718;51.980;5.734;2022-10-04T02:02:06;102007.56;;;9.78;100.00
48790;BME280;41718;51.980;5.734;2022-10-04T02:07:13;102001.94;;;9.90;100.00
48790;BME280;41718;51.980;5.734;2022-10-04T02:12:15;101999.31;;;9.89;100.00
48790;BME280;41718;51.980;5.734;2022-10-04T02:17:22;102004.50;;;9.89;100.00
48790;BME280;41718;51.980;5.734;2022-10-04T02:22:25;101977.16;;;9.95;100.00
48790;BME280;41718;51.980;5.734;2022-10-04T02:27:27;101971.06;;;9.93;100.00
48790;BME280;41718;51.980;5.734;2022-10-04T02:32:31;101961.47;;;9.91;100.00
48790;BME280;41718;51.980;5.734;2022-10-04T02:37:54;101951.47;;;10.00;100.00
48790;BME280;41718;51.980;5.734;2022-10-04T02:43:01;101950.47;;;9.96;100.00
48790;BME280;41718;51.980;5.734;2022-10-04T02:48:18;101944.75;;;9.81;100.00
48790;BME280;41718;51.980;5.734;2022-10-04T02:58:43;101924.38;;;9.65;100.00
48790;BME280;41718;51.980;5.734;2022-10-04T03:03:45;101931.31;;;9.66;100.00
48790;BME280;41718;51.980;5.734;2022-10-04T03:08:48;101923.38;;;9.61;100.00
48790;BME280;41718;51.980;5.734;2022-10-04T03:13:51;101928.94;;;9.48;100.00
48790;BME280;41718;51.980;5.734;2022-10-04T03:18:55;101919.91;;;9.37;100.00
48790;BME280;41718;51.980;5.734;2022-10-04T03:23:57;101910.16;;;9.29;100.00
48790;BME280;41718;51.980;5.734;2022-10-04T03:29:01;101896.66;;;9.37;100.00
48790;BME280;41718;51.980;5.734;2022-10-04T03:34:06;101895.00;;;9.39;100.00
48790;BME280;41718;51.980;5.734;2022-10-04T03:39:21;101884.00;;;9.20;100.00
48790;BME280;41718;51.980;5.734;2022-10-04T03:44:26;101889.78;;;9.13;100.00
48790;BME280;41718;51.980;5.734;2022-10-04T03:49:33;101892.81;;;9.03;100.00
48790;BME280;41718;51.980;5.734;2022-10-04T03:54:35;101882.78;;;8.88;100.00
48790;BME280;41718;51.980;5.734;2022-10-04T03:59:37;101868.97;;;8.86;100.00
48790;BME280;41718;51.980;5.734;2022-10-04T04:04:40;101875.81;;;8.63;100.00
48790;BME280;41718;51.980;5.734;2022-10-04T04:09:43;101881.66;;;8.59;100.00
48790;BME280;41718;51.980;5.734;2022-10-04T04:14:48;101880.59;;;8.54;100.00
48790;BME280;41718;51.980;5.734;2022-10-04T04:19:50;101872.19;;;8.37;100.00
48790;BME280;41718;51.980;5.734;2022-10-04T04:24:52;101871.69;;;8.46;100.00
48790;BME280;41718;51.980;5.734;2022-10-04T04:29:54;101868.25;;;8.26;100.00
48790;BME280;41718;51.980;5.734;2022-10-04T04:34:56;101865.22;;;8.15;100.00
48790;BME280;41718;51.980;5.734;2022-10-04T04:40:01;101857.19;;;8.08;100.00
48790;BME280;41718;51.980;5.734;2022-10-04T04:45:15;101856.63;;;8.15;100.00
48790;BME280;41718;51.980;5.734;2022-10-04T04:50:18;101856.25;;;8.06;100.00
48790;BME280;41718;51.980;5.734;2022-10-04T04:55:21;101859.72;;;8.06;100.00
48790;BME280;41718;51.980;5.734;2022-10-04T05:00:28;101856.44;;;8.10;100.00
48790;BME280;41718;51.980;5.734;2022-10-04T05:05:33;101847.13;;;7.93;100.00
48790;BME280;41718;51.980;5.734;2022-10-04T05:10:35;101850.56;;;7.93;100.00
48790;BME280;41718;51.980;5.734;2022-10-04T05:15:37;101843.72;;;7.94;100.00
48790;BME280;41718;51.980;5.734;2022-10-04T05:20:41;101855.47;;;7.87;100.00
48790;BME280;41718;51.980;5.734;2022-10-04T05:25:49;101855.22;;;7.81;100.00
48790;BME280;41718;51.980;5.734;2022-10-04T05:46:34;101859.19;;;8.15;100.00
48790;BME280;41718;51.980;5.734;2022-10-04T05:57:02;101855.00;;;8.38;100.00
48790;BME280;41718;51.980;5.734;2022-10-04T06:02:21;101843.38;;;8.47;100.00
48790;BME280;41718;51.980;5.734;2022-10-04T06:07:39;101863.06;;;8.45;100.00
48790;BME280;41718;51.980;5.734;2022-10-04T06:17:50;101852.50;;;8.62;100.00
48790;BME280;41718;51.980;5.734;2022-10-04T06:22:59;101857.50;;;8.57;100.00
48790;BME280;41718;51.980;5.734;2022-10-04T06:28:11;101855.81;;;8.58;100.00
48790;BME280;41718;51.980;5.734;2022-10-04T06:38:32;101855.88;;;8.59;100.00
48790;BME280;41718;51.980;5.734;2022-10-04T07:04:30;101841.06;;;8.55;100.00
48790;BME280;41718;51.980;5.734;2022-10-04T07:15:18;101836.97;;;8.83;100.00
48790;BME280;41718;51.980;5.734;2022-10-04T07:20:22;101837.41;;;8.93;100.00
48790;BME280;41718;51.980;5.734;2022-10-04T07:25:26;101830.31;;;9.12;100.00
48790;BME280;41718;51.980;5.734;2022-10-04T07:30:29;101830.06;;;9.28;100.00
48790;BME280;41718;51.980;5.734;2022-10-04T07:35:38;101827.47;;;9.52;100.00
48790;BME280;41718;51.980;5.734;2022-10-04T07:46:05;101831.88;;;9.80;100.00
48790;BME280;41718;51.980;5.734;2022-10-04T07:51:18;101845.13;;;9.89;100.00
48790;BME280;41718;51.980;5.734;2022-10-04T07:56:35;101856.09;;;10.09;100.00
48790;BME280;41718;51.980;5.734;2022-10-04T08:01:39;101844.88;;;10.32;100.00
48790;BME280;41718;51.980;5.734;2022-10-04T08:06:59;101847.91;;;10.48;100.00
48790;BME280;41718;51.980;5.734;2022-10-04T08:27:44;101868.97;;;11.17;100.00
48790;BME280;41718;51.980;5.734;2022-10-04T08:33:11;101878.31;;;11.40;100.00
48790;BME280;41718;51.980;5.734;2022-10-04T08:43:22;101908.47;;;12.00;100.00
48790;BME280;41718;51.980;5.734;2022-10-04T08:48:39;101922.56;;;12.10;100.00
48790;BME280;41718;51.980;5.734;2022-10-04T09:45:30;101932.06;;;13.57;100.00
48790;BME280;41718;51.980;5.734;2022-10-04T10:01:16;101921.91;;;13.71;100.00
48790;BME280;41718;51.980;5.734;2022-10-04T10:11:29;101917.34;;;14.06;100.00
48790;BME280;41718;51.980;5.734;2022-10-04T10:17:14;101904.25;;;14.50;100.00
48790;BME280;41718;51.980;5.734;2022-10-04T10:22:27;101898.59;;;14.24;100.00
48790;BME280;41718;51.980;5.734;2022-10-04T10:37:51;101884.41;;;15.95;100.00
48790;BME280;41718;51.980;5.734;2022-10-04T11:09:09;101882.09;;;16.31;100.00
48790;BME280;41718;51.980;5.734;2022-10-04T11:24:32;101863.16;;;16.61;100.00
48790;BME280;41718;51.980;5.734;2022-10-04T11:29:51;101847.69;;;16.95;100.00
48790;BME280;41718;51.980;5.734;2022-10-04T11:50:32;101806.94;;;17.60;100.00
48790;BME280;41718;51.980;5.734;2022-10-04T12:00:45;101806.84;;;17.20;100.00
48790;BME280;41718;51.980;5.734;2022-10-04T12:06:15;101820.47;;;16.58;100.00
48790;BME280;41718;51.980;5.734;2022-10-04T12:11:24;101810.88;;;16.58;100.00
48790;BME280;41718;51.980;5.734;2022-10-04T12:27:36;101804.81;;;16.64;100.00
48790;BME280;41718;51.980;5.734;2022-10-04T12:32:52;101785.88;;;17.08;100.00
48790;BME280;41718;51.980;5.734;2022-10-04T12:38:07;101775.53;;;17.60;100.00
48790;BME280;41718;51.980;5.734;2022-10-04T12:43:34;101765.94;;;17.59;100.00
48790;BME280;41718;51.980;5.734;2022-10-04T12:53:57;101736.28;;;17.75;100.00
48790;BME280;41718;51.980;5.734;2022-10-04T13:09:14;101742.34;;;17.43;100.00
48790;BME280;41718;51.980;5.734;2022-10-04T13:19:33;101739.69;;;17.17;100.00
48790;BME280;41718;51.980;5.734;2022-10-04T13:30:15;101735.34;;;17.29;100.00
48790;BME280;41718;51.980;5.734;2022-10-04T13:45:28;101737.97;;;17.29;100.00
48790;BME280;41718;51.980;5.734;2022-10-04T13:56:02;101709.16;;;17.12;100.00
48790;BME280;41718;51.980;5.734;2022-10-04T14:06:35;101685.63;;;17.07;100.00
48790;BME280;41718;51.980;5.734;2022-10-04T14:50:02;101675.13;;;16.81;100.00
48790;BME280;41718;51.980;5.734;2022-10-04T14:55:09;101667.28;;;16.83;100.00
48790;BME280;41718;51.980;5.734;2022-10-04T15:00:20;101667.31;;;16.95;100.00
48790;BME280;41718;51.980;5.734;2022-10-04T15:05:27;101683.88;;;17.00;100.00
48790;BME280;41718;51.980;5.734;2022-10-04T15:10:32;101675.16;;;17.01;100.00
48790;BME280;41718;51.980;5.734;2022-10-04T15:21:00;101687.34;;;16.88;100.00
48790;BME280;41718;51.980;5.734;2022-10-04T15:26:35;101689.94;;;16.88;100.00
48790;BME280;41718;51.980;5.734;2022-10-04T15:32:02;101689.91;;;16.76;100.00
48790;BME280;41718;51.980;5.734;2022-10-04T15:37:02;101678.53;;;16.66;100.00
48790;BME280;41718;51.980;5.734;2022-10-04T15:48:27;101686.31;;;16.50;100.00
48790;BME280;41718;51.980;5.734;2022-10-04T15:58:08;101669.72;;;16.35;100.00
48790;BME280;41718;51.980;5.734;2022-10-04T16:15:15;101680.03;;;16.06;100.00
48790;BME280;41718;51.980;5.734;2022-10-04T16:30:28;101703.41;;;15.89;100.00
48790;BME280;41718;51.980;5.734;2022-10-04T16:40:36;101716.19;;;15.60;100.00
48790;BME280;41718;51.980;5.734;2022-10-04T16:56:09;101730.34;;;14.97;100.00
48790;BME280;41718;51.980;5.734;2022-10-04T17:11:51;101726.84;;;14.94;100.00
48790;BME280;41718;51.980;5.734;2022-10-04T17:16:58;101738.81;;;14.78;100.00
48790;BME280;41718;51.980;5.734;2022-10-04T17:22:09;101734.38;;;14.69;100.00
48790;BME280;41718;51.980;5.734;2022-10-04T17:27:17;101741.03;;;14.47;100.00
48790;BME280;41718;51.980;5.734;2022-10-04T17:32:26;101751.34;;;14.41;100.00
48790;BME280;41718;51.980;5.734;2022-10-04T17:42:38;101742.00;;;14.54;100.00
48790;BME280;41718;51.980;5.734;2022-10-04T17:48:00;101736.78;;;14.52;100.00
48790;BME280;41718;51.980;5.734;2022-10-04T17:53:22;101740.97;;;14.44;100.00
48790;BME280;41718;51.980;5.734;2022-10-04T17:58:58;101737.59;;;14.48;100.00
48790;BME280;41718;51.980;5.734;2022-10-04T18:04:26;101730.44;;;14.37;100.00
48790;BME280;41718;51.980;5.734;2022-10-04T18:09:40;101738.47;;;14.50;100.00
48790;BME280;41718;51.980;5.734;2022-10-04T18:15:00;101727.84;;;14.37;100.00
48790;BME280;41718;51.980;5.734;2022-10-04T18:25:12;101720.63;;;14.17;100.00
48790;BME280;41718;51.980;5.734;2022-10-04T18:30:16;101706.78;;;14.18;100.00
48790;BME280;41718;51.980;5.734;2022-10-04T18:35:20;101708.53;;;14.19;100.00
48790;BME280;41718;51.980;5.734;2022-10-04T18:40:26;101715.63;;;14.32;100.00
48790;BME280;41718;51.980;5.734;2022-10-04T18:45:32;101713.03;;;14.31;100.00
48790;BME280;41718;51.980;5.734;2022-10-04T18:50:35;101715.69;;;14.37;100.00
48790;BME280;41718;51.980;5.734;2022-10-04T19:00:45;101715.78;;;14.43;100.00
48790;BME280;41718;51.980;5.734;2022-10-04T19:06:18;101714.16;;;14.50;100.00
48790;BME280;41718;51.980;5.734;2022-10-04T19:11:30;101712.25;;;14.38;100.00
48790;BME280;41718;51.980;5.734;2022-10-04T19:21:41;101700.09;;;14.40;100.00
48790;BME280;41718;51.980;5.734;2022-10-04T19:27:05;101697.81;;;14.60;100.00
48790;BME280;41718;51.980;5.734;2022-10-04T19:32:12;101689.91;;;14.55;100.00
48790;BME280;41718;51.980;5.734;2022-10-04T19:42:41;101676.88;;;14.52;100.00
48790;BME280;41718;51.980;5.734;2022-10-04T19:47:52;101668.16;;;14.52;100.00
48790;BME280;41718;51.980;5.734;2022-10-04T20:03:09;101674.06;;;14.40;100.00
48790;BME280;41718;51.980;5.734;2022-10-04T20:08:13;101668.28;;;14.58;100.00
48790;BME280;41718;51.980;5.734;2022-10-04T20:13:16;101669.94;;;14.53;100.00
48790;BME280;41718;51.980;5.734;2022-10-04T20:28:47;101681.06;;;14.43;100.00
48790;BME280;41718;51.980;5.734;2022-10-04T20:33:49;101675.22;;;14.61;100.00
48790;BME280;41718;51.980;5.734;2022-10-04T20:38:55;101673.38;;;14.50;100.00
48790;BME280;41718;51.980;5.734;2022-10-04T20:44:00;101675.28;;;14.65;100.00
48790;BME280;41718;51.980;5.734;2022-10-04T20:49:02;101672.63;;;14.62;100.00
48790;BME280;41718;51.980;5.734;2022-10-04T20:54:14;101658.81;;;14.66;100.00
48790;BME280;41718;51.980;5.734;2022-10-04T20:59:16;101663.06;;;14.60;100.00
48790;BME280;41718;51.980;5.734;2022-10-04T21:04:22;101653.53;;;14.58;100.00
48790;BME280;41718;51.980;5.734;2022-10-04T21:09:33;101678.69;;;14.60;100.00
48790;BME280;41718;51.980;5.734;2022-10-04T21:14:36;101681.25;;;14.56;100.00
48790;BME280;41718;51.980;5.734;2022-10-04T21:19:43;101676.09;;;14.58;100.00
48790;BME280;41718;51.980;5.734;2022-10-04T21:29:49;101684.53;;;14.45;100.00
48790;BME280;41718;51.980;5.734;2022-10-04T21:34:53;101686.22;;;14.40;100.00
48790;BME280;41718;51.980;5.734;2022-10-04T21:39:55;101693.09;;;14.35;100.00
48790;BME280;41718;51.980;5.734;2022-10-04T21:44:56;101695.72;;;14.36;100.00
48790;BME280;41718;51.980;5.734;2022-10-04T21:49:58;101697.47;;;14.36;100.00
48790;BME280;41718;51.980;5.734;2022-10-04T21:54:59;101697.41;;;14.32;100.00
48790;BME280;41718;51.980;5.734;2022-10-04T22:00:00;101699.09;;;14.29;100.00
48790;BME280;41718;51.980;5.734;2022-10-04T22:05:02;101688.78;;;14.35;100.00
48790;BME280;41718;51.980;5.734;2022-10-04T22:10:03;101690.44;;;14.30;100.00
48790;BME280;41718;51.980;5.734;2022-10-04T22:15:05;101673.91;;;14.26;100.00
48790;BME280;41718;51.980;5.734;2022-10-04T22:20:07;101672.19;;;14.28;100.00
48790;BME280;41718;51.980;5.734;2022-10-04T22:25:12;101662.69;;;14.32;100.00
48790;BME280;41718;51.980;5.734;2022-10-04T22:30:20;101665.38;;;14.37;100.00
48790;BME280;41718;51.980;5.734;2022-10-04T22:35:22;101652.34;;;14.35;100.00
48790;BME280;41718;51.980;5.734;2022-10-04T22:40:24;101653.97;;;14.27;100.00
48790;BME280;41718;51.980;5.734;2022-10-04T22:45:26;101648.00;;;14.36;100.00
48790;BME280;41718;51.980;5.734;2022-10-04T22:50:30;101642.75;;;14.31;100.00
48790;BME280;41718;51.980;5.734;2022-10-04T22:55:32;101638.34;;;14.27;100.00
48790;BME280;41718;51.980;5.734;2022-10-04T23:00:34;101625.47;;;14.41;100.00
48790;BME280;41718;51.980;5.734;2022-10-04T23:05:35;101624.56;;;14.36;100.00
48790;BME280;41718;51.980;5.734;2022-10-04T23:10:36;101613.38;;;14.44;100.00
48790;BME280;41718;51.980;5.734;2022-10-04T23:15:37;101624.53;;;14.32;100.00
48790;BME280;41718;51.980;5.734;2022-10-04T23:20:39;101626.25;;;14.30;100.00
48790;BME280;41718;51.980;5.734;2022-10-04T23:25:40;101626.97;;;14.19;100.00
48790;BME280;41718;51.980;5.734;2022-10-04T23:30:56;101624.38;;;14.22;100.00
48790;BME280;41718;51.980;5.734;2022-10-04T23:36:00;101628.72;;;14.21;100.00
48790;BME280;41718;51.980;5.734;2022-10-04T23:41:01;101626.13;;;14.21;100.00
48790;BME280;41718;51.980;5.734;2022-10-04T23:46:18;101626.13;;;14.20;100.00
48790;BME280;41718;51.980;5.734;2022-10-04T23:51:21;101627.69;;;14.09;100.00
48790;BME280;41718;51.980;5.734;2022-10-04T23:56:23;101618.31;;;14.23;100.00
